ADDS METAR Data INFO
IDs: Format: Raw Decoded Include TAF

Data at: 1350 UTC 20 Aug 2017

KDZB 201335Z AUTO 00000KT 10SM CLR 26/22 A3003 RMK AO2 T02590215
KDZB 201315Z AUTO 00000KT 10SM CLR 25/21 A3003 RMK AO2 T02490213
KDZB 201255Z AUTO 00000KT 10SM CLR 24/21 A3002 RMK AO2 T02390211
KDZB 201235Z AUTO 00000KT 10SM CLR 23/21 A3001 RMK AO2 T02310208
KDZB 201215Z AUTO 00000KT 10SM CLR 24/21 A3001 RMK AO2 T02370209
KDZB 201155Z AUTO 00000KT 10SM CLR 24/21 A3000 RMK AO2 T02390209 10281 20239
KDZB 201135Z AUTO 21003KT 10SM CLR 24/21 A3000 RMK AO2 T02400208
KDZB 201115Z AUTO 20004KT 10SM CLR 24/21 A2999 RMK AO2 T02400207
KDZB 201055Z AUTO 00000KT 10SM CLR 24/21 A3000 RMK AO2 T02430205
KDZB 201035Z AUTO 00000KT 10SM CLR 25/21 A3000 RMK AO2 T02470205
KDZB 201015Z AUTO 20004KT 10SM CLR 25/20 A3000 RMK AO2 T02500203
KDZB 200955Z AUTO 20006KT 10SM CLR 25/20 A2999 RMK AO2 T02500200
KDZB 200935Z AUTO 19007KT 10SM CLR 25/20 A2999 RMK AO2 T02520197
KDZB 200915Z AUTO 19007KT 10SM CLR 25/20 A2999 RMK AO2 T02540196
KDZB 200855Z AUTO 18007KT 10SM CLR 26/19 A2999 RMK AO2 T02560193
KDZB 200835Z AUTO 19009G15KT 10SM CLR 26/19 A2999 RMK AO2 T02580190
KDZB 200815Z AUTO 19009KT 10SM CLR 26/19 A3000 RMK AO2 LTG DSNT W T02600188
KDZB 200755Z AUTO 18008KT 10SM CLR 27/19 A3001 RMK AO2 T02650188
KDZB 200735Z AUTO 19007KT 10SM CLR 27/19 A3000 RMK AO2 LTG DSNT W T02670189
KDZB 200715Z AUTO 18006KT 10SM CLR 27/19 A3000 RMK AO2 T02700190
KDZB 200655Z AUTO 18007KT 10SM CLR 28/19 A3001 RMK AO2 T02750187
KDZB 200635Z AUTO 17009G14KT 10SM CLR 28/19 A3001 RMK AO2 T02780188
KDZB 200615Z AUTO 17007KT 10SM CLR 28/19 A3001 RMK AO2 T02770191
KDZB 200555Z AUTO 18008KT 10SM CLR 28/19 A3001 RMK AO2 T02810189 10359 20280 403750222
KDZB 200535Z AUTO 18007KT 10SM CLR 28/19 A3001 RMK AO2 T02830185
KDZB 200515Z AUTO 17007KT 10SM CLR 29/18 A3001 RMK AO2 T02850182
KDZB 200455Z AUTO 17005KT 10SM CLR 28/18 A3001 RMK AO2 T02800181
KDZB 200435Z AUTO 17004KT 10SM CLR 28/18 A3000 RMK AO2 T02810182
KDZB 200415Z AUTO 17003KT 10SM CLR 29/18 A3000 RMK AO2 T02850181
KDZB 200355Z AUTO 16003KT 10SM CLR 29/18 A3000 RMK AO2 T02870181
KDZB 200335Z AUTO 16005KT 10SM CLR 29/18 A2999 RMK AO2 T02860180
KDZB 200315Z AUTO 16004KT 10SM CLR 29/18 A2998 RMK AO2 T02870179
KDZB 200255Z AUTO 16003KT 10SM CLR 29/18 A2997 RMK AO2 T02860175
KDZB 200235Z AUTO 16004KT 10SM CLR 29/18 A2997 RMK AO2 LTG DSNT W T02890175
KDZB 200215Z AUTO 16003KT 10SM CLR 29/17 A2996 RMK AO2 T02920173
KDZB 200155Z AUTO 00000KT 10SM CLR 30/17 A2995 RMK AO2 T02970174
KDZB 200135Z AUTO 15003KT 10SM CLR 30/17 A2994 RMK AO2 T03040171
KDZB 200115Z AUTO 15003KT 10SM CLR 32/17 A2993 RMK AO2 T03160167
KDZB 200055Z AUTO 15004KT 10SM CLR 33/16 A2993 RMK AO2 T03300158
KDZB 200035Z AUTO 14005KT 10SM CLR 34/16 A2992 RMK AO2 T03410157
KDZB 200015Z AUTO 14005KT 10SM CLR 35/16 A2992 RMK AO2 LTG DSNT NW T03500160
KDZB 192355Z AUTO 14004KT 10SM CLR 36/16 A2991 RMK AO2 T03600163 10375 20344
KDZB 192335Z AUTO 14005KT 10SM CLR 37/16 A2992 RMK AO2 T03650160
KDZB 192315Z AUTO 16004KT 10SM CLR 37/16 A2992 RMK AO2 T03700160
KDZB 192255Z AUTO 16005KT 10SM CLR 37/15 A2992 RMK AO2 T03670153
KDZB 192235Z AUTO 13004KT 10SM CLR 37/15 A2992 RMK AO2 T03710151
KDZB 192215Z AUTO 14006KT 090V150 10SM CLR 37/15 A2993 RMK AO2 T03700152
KDZB 192155Z AUTO 15006KT 10SM CLR 37/16 A2993 RMK AO2 LTG DSNT NW T03700161
KDZB 192135Z AUTO 00000KT 10SM CLR 37/16 A2994 RMK AO2 T03700158
KDZB 192115Z AUTO 13004KT 10SM CLR 37/16 A2995 RMK AO2 T03740158
KDZB 192055Z AUTO 00000KT 10SM CLR 37/15 A2996 RMK AO2 T03690153
KDZB 192035Z AUTO 08003KT 10SM CLR 37/16 A2996 RMK AO2 T03670159
KDZB 192015Z AUTO 00000KT 10SM CLR 36/16 A2997 RMK AO2 T03620164
KDZB 191955Z AUTO 18003KT 10SM CLR 36/17 A2999 RMK AO2 T03550171
KDZB 191935Z AUTO 19004KT 10SM CLR 36/17 A2999 RMK AO2 T03600172
KDZB 191915Z AUTO 00000KT 10SM CLR 36/17 A3000 RMK AO2 T03580169
KDZB 191855Z AUTO 11003KT 10SM CLR 36/17 A3001 RMK AO2 T03570172
KDZB 191835Z AUTO 13004KT 10SM CLR 35/18 A3001 RMK AO2 T03540177
KDZB 191815Z AUTO 00000KT 10SM CLR 35/17 A3002 RMK AO2 T03470174
KDZB 191755Z AUTO 16005KT 10SM CLR 34/18 A3003 RMK AO2 T03430179 10346 20222
KDZB 191735Z AUTO 19003KT 10SM CLR 34/18 A3003 RMK AO2 T03380181
KDZB 191715Z AUTO 24003KT 10SM CLR 34/19 A3004 RMK AO2 T03360187
KDZB 191655Z AUTO 17004KT 10SM CLR 33/19 A3005 RMK AO2 T03290190
KDZB 191635Z AUTO 20005KT 10SM CLR 33/20 A3005 RMK AO2 T03250195
KDZB 191615Z AUTO 00000KT 10SM CLR 32/20 A3006 RMK AO2 T03220197
KDZB 191555Z AUTO 25006KT 10SM CLR 32/20 A3006 RMK AO2 T03150199
KDZB 191535Z AUTO 20003KT 10SM CLR 31/20 A3006 RMK AO2 T03100201
KDZB 191515Z AUTO 23004KT 10SM CLR 30/20 A3006 RMK AO2 T03020203
KDZB 191455Z AUTO 21004KT 10SM CLR 30/21 A3006 RMK AO2 T02950206
KDZB 191435Z AUTO 23007KT 10SM CLR 29/21 A3006 RMK AO2 T02880212
KDZB 191415Z AUTO 23004KT 10SM CLR 28/21 A3006 RMK AO2 T02800214
KDZB 191355Z AUTO 00000KT 10SM CLR 27/22 A3006 RMK AO2 T02680217
KDZB 191335Z AUTO 00000KT 10SM CLR 26/22 A3006 RMK AO2 T02570216
KDZB 191315Z AUTO 00000KT 10SM CLR 25/21 A3005 RMK AO2 T02490214
KDZB 191255Z AUTO 00000KT 10SM CLR 24/21 A3005 RMK AO2 T02350210
KDZB 191235Z AUTO 00000KT 10SM CLR 23/21 A3005 RMK AO2 T02250205
KDZB 191215Z AUTO 00000KT 10SM CLR 22/20 A3004 RMK AO2 T02230201
KDZB 191155Z AUTO 00000KT 10SM CLR 23/20 A3003 RMK AO2 T02310204 10283 20231
KDZB 191135Z AUTO 00000KT 10SM CLR 24/21 A3004 RMK AO2 T02350205
KDZB 191115Z AUTO 00000KT 10SM CLR 24/20 A3003 RMK AO2 T02370203
KDZB 191055Z AUTO 19003KT 10SM CLR 25/20 A3003 RMK AO2 T02450203
KDZB 191035Z AUTO 00000KT 10SM CLR 25/20 A3003 RMK AO2 T02500204
KDZB 191015Z AUTO 00000KT 10SM CLR 25/20 A3002 RMK AO2 T02470204
KDZB 190955Z AUTO 00000KT 10SM CLR 26/21 A3002 RMK AO2 T02550205
KDZB 190935Z AUTO 00000KT 10SM CLR 26/20 A3001 RMK AO2 T02550204
KDZB 190915Z AUTO 19005KT 10SM CLR 26/21 A3001 RMK AO2 T02560205
KDZB 190855Z AUTO 00000KT 10SM CLR 26/20 A3001 RMK AO2 T02590203
KDZB 190835Z AUTO 00000KT 10SM CLR 26/20 A3001 RMK AO2 T02600202
KDZB 190815Z AUTO 19007KT 10SM CLR 26/20 A3001 RMK AO2 T02610202
KDZB 190755Z AUTO 17004KT 10SM CLR 27/20 A3001 RMK AO2 LTG DSNT W T02650203
KDZB 190735Z AUTO 18008G14KT 10SM CLR 27/20 A3001 RMK AO2 T02700201
KDZB 190715Z AUTO 17007KT 10SM CLR 27/20 A3001 RMK AO2 T02730202
KDZB 190655Z AUTO 17009G14KT 10SM CLR 28/21 A3001 RMK AO2 T02770205
KDZB 190635Z AUTO 18008G14KT 10SM CLR 28/21 A3002 RMK AO2 T02800210
KDZB 190615Z AUTO 17009G15KT 10SM CLR 28/21 A3003 RMK AO2 T02820210
KDZB 190555Z AUTO 18006KT 10SM CLR 28/21 A3003 RMK AO2 T02830207 10359 20275 403700232
KDZB 190535Z AUTO 17007KT 10SM CLR 29/20 A3003 RMK AO2 T02860202
KDZB 190515Z AUTO 18007KT 10SM CLR 29/20 A3002 RMK AO2 LTG DSNT W T02890196
KDZB 190455Z AUTO 18006KT 10SM CLR 29/19 A3001 RMK AO2 T02910191
KDZB 190435Z AUTO 16009KT 10SM CLR 28/19 A3001 RMK AO2 T02830186
KDZB 190415Z AUTO 16003KT 10SM CLR 28/19 A3000 RMK AO2 T02770187
KDZB 190355Z AUTO 15004KT 10SM CLR 28/19 A2999 RMK AO2 T02800185
KDZB 190335Z AUTO 16004KT 10SM CLR 28/19 A2999 RMK AO2 T02820185
KDZB 190315Z AUTO 14003KT 10SM CLR 29/18 A2999 RMK AO2 T02900183
KDZB 190255Z AUTO 17004KT 10SM CLR 30/18 A2999 RMK AO2 T02960180
KDZB 190235Z AUTO 17004KT 10SM CLR 29/19 A2998 RMK AO2 T02920186
KDZB 190215Z AUTO 16004KT 10SM CLR 30/19 A2998 RMK AO2 T02950188
KDZB 190155Z AUTO 00000KT 10SM CLR 30/19 A2998 RMK AO2 T03030186